Time;durP1;ratioP1;P1;durP2;ratioP2;P2;SDS_P1;SDS_P2;PMS_P1;PMS_P2;Temp;Humidity;BMP_temperature;BMP_pressure;BME280_temperature;BME280_humidity;BME280_pressure;Samples;Min_cycle;Max_cycle;Signal;HPM_P1;HPM_P2
2022/07/26 00:02:27;;;;;;;7.00;6.40;;;;;;;20.93;100.00;96758.03;5004695;28;20211;-65
2022/07/26 00:05:06;;;;;;;8.03;6.50;;;;;;;20.90;100.00;96754.00;4932559;28;20676;-64
2022/07/26 00:07:38;;;;;;;7.03;6.43;;;;;;;20.74;100.00;96753.06;4997604;28;20643;-66
2022/07/26 00:10:06;;;;;;;7.37;6.63;;;;;;;20.97;100.00;96759.13;5001784;28;20224;-64
2022/07/26 00:12:38;;;;;;;7.50;6.90;;;;;;;21.06;100.00;96768.34;5000231;28;20736;-62
2022/07/26 00:15:17;;;;;;;7.73;6.60;;;;;;;21.02;100.00;96769.91;4998305;28;20223;-65
2022/07/26 00:17:47;;;;;;;7.00;6.40;;;;;;;21.14;100.00;96779.69;5000036;28;20211;-64
2022/07/26 00:20:18;;;;;;;7.13;6.63;;;;;;;21.00;100.00;96788.22;4933421;28;20764;-66
2022/07/26 00:22:46;;;;;;;7.20;6.70;;;;;;;21.02;100.00;96782.59;4999740;28;20252;-63
2022/07/26 00:25:19;;;;;;;7.30;6.80;;;;;;;20.96;100.00;96792.50;5002366;28;20668;-66
2022/07/26 00:27:52;;;;;;;7.30;6.63;;;;;;;20.75;100.00;96784.28;5001236;28;20262;-64
2022/07/26 00:30:20;;;;;;;9.70;7.00;;;;;;;20.85;100.00;96796.22;5002711;28;20789;-65
2022/07/26 00:32:51;;;;;;;6.80;6.30;;;;;;;20.97;100.00;96791.44;5000930;28;20251;-65
2022/07/26 00:35:19;;;;;;;6.70;6.30;;;;;;;20.87;100.00;96791.38;4978524;28;20209;-65
2022/07/26 00:37:56;;;;;;;6.60;6.13;;;;;;;20.89;100.00;96795.44;4946507;28;20211;-64
2022/07/26 00:40:43;;;;;;;7.37;6.67;;;;;;;20.63;100.00;96802.50;5003659;28;20409;-66
2022/07/26 00:43:13;;;;;;;7.50;6.87;;;;;;;20.74;100.00;96788.06;4999731;28;20235;-65
2022/07/26 00:45:43;;;;;;;6.77;6.03;;;;;;;20.90;100.00;96797.06;4999301;28;20681;-64
2022/07/26 00:48:11;;;;;;;7.30;6.60;;;;;;;20.89;100.00;96800.00;5001288;28;20271;-65
2022/07/26 00:50:48;;;;;;;7.17;6.63;;;;;;;20.89;100.00;96808.91;4980684;28;20221;-63
2022/07/26 00:53:19;;;;;;;7.33;6.67;;;;;;;20.98;100.00;96800.34;4960026;28;20231;-66
2022/07/26 00:55:49;;;;;;;7.40;6.70;;;;;;;21.01;100.00;96799.81;5004294;28;20287;-65
2022/07/26 00:58:23;;;;;;;7.03;6.50;;;;;;;20.99;100.00;96801.97;5008323;28;20216;-65
2022/07/26 01:00:52;;;;;;;7.70;7.00;;;;;;;20.96;100.00;96812.19;5006998;28;20311;-63
2022/07/26 01:03:27;;;;;;;7.70;7.00;;;;;;;20.93;100.00;96804.63;5005388;28;20287;-66
2022/07/26 01:06:09;;;;;;;7.90;7.30;;;;;;;20.98;100.00;96811.09;4980039;28;20290;-64
2022/07/26 01:08:41;;;;;;;8.80;8.20;;;;;;;20.95;100.00;96802.47;4955434;28;20716;-65
2022/07/26 01:11:13;;;;;;;8.60;7.83;;;;;;;20.92;100.00;96807.56;4926473;28;20874;-65
2022/07/26 01:13:59;;;;;;;8.90;8.20;;;;;;;20.89;100.00;96800.00;4980986;28;20461;-62
2022/07/26 01:16:27;;;;;;;8.80;7.97;;;;;;;20.70;100.00;96792.34;4958346;28;20570;-64
2022/07/26 01:18:55;;;;;;;8.23;7.53;;;;;;;20.58;100.00;96799.75;5008671;28;20258;-64
2022/07/26 01:21:30;;;;;;;8.60;7.80;;;;;;;20.54;100.00;96796.78;5006353;28;20246;-65
2022/07/26 01:24:02;;;;;;;8.57;7.87;;;;;;;20.53;100.00;96801.34;5005862;28;20223;-66
2022/07/26 01:26:33;;;;;;;9.53;7.77;;;;;;;20.39;100.00;96802.88;4949131;28;20216;-65
2022/07/26 01:29:02;;;;;;;7.90;7.37;;;;;;;20.45;100.00;96796.44;5009017;28;20209;-65
2022/07/26 01:31:30;;;;;;;7.97;7.37;;;;;;;20.36;100.00;96798.00;4979650;28;20229;-64
2022/07/26 01:34:01;;;;;;;8.13;7.53;;;;;;;20.41;100.00;96797.22;4981880;28;20244;-66
2022/07/26 01:36:33;;;;;;;7.93;7.23;;;;;;;20.35;100.00;96797.19;5003467;28;20220;-64
2022/07/26 01:39:01;;;;;;;8.23;7.53;;;;;;;20.34;100.00;96803.63;5005159;28;20565;-65
2022/07/26 01:41:38;;;;;;;7.77;7.17;;;;;;;20.28;100.00;96793.91;4953218;28;20274;-62
2022/07/26 01:44:08;;;;;;;8.47;7.67;;;;;;;20.36;100.00;96789.94;5005324;28;20254;-66
2022/07/26 01:46:38;;;;;;;8.37;7.67;;;;;;;20.36;100.00;96788.03;4981883;28;20426;-65
2022/07/26 01:49:07;;;;;;;7.33;6.80;;;;;;;20.29;100.00;96794.72;4983113;28;20215;-65
2022/07/26 01:51:37;;;;;;;8.07;7.27;;;;;;;20.24;100.00;96790.91;5003110;28;20220;-65
2022/07/26 01:54:09;;;;;;;8.30;7.53;;;;;;;20.24;100.00;96790.09;5005092;28;20256;-64
2022/07/26 01:56:40;;;;;;;7.47;6.80;;;;;;;20.16;100.00;96782.50;4957918;28;20880;-66
2022/07/26 01:59:11;;;;;;;7.63;7.13;;;;;;;20.01;100.00;96788.56;5003207;28;20216;-65
2022/07/26 02:01:39;;;;;;;7.37;6.87;;;;;;;20.14;100.00;96788.13;5002274;28;20516;-65
2022/07/26 02:04:57;;;;;;;7.30;6.70;;;;;;;20.18;100.00;96789.22;4963168;28;20221;-66
2022/07/26 02:07:02;;;;;;;8.60;7.90;;;;;;;20.14;100.00;96787.31;5005630;28;20208;-66
2022/07/26 02:09:42;;;;;;;8.63;7.70;;;;;;;20.12;100.00;96782.19;5002472;28;20384;-66
2022/07/26 02:12:10;;;;;;;7.70;7.10;;;;;;;20.08;100.00;96773.84;5003122;28;20211;-65
2022/07/26 02:14:38;;;;;;;7.80;7.20;;;;;;;20.10;100.00;96785.16;4962893;28;20501;-66
2022/07/26 02:17:07;;;;;;;9.07;8.27;;;;;;;20.10;100.00;96787.00;5005532;28;20800;-64
2022/07/26 02:19:35;;;;;;;9.30;8.43;;;;;;;19.97;100.00;96780.16;4954038;28;20516;-64
2022/07/26 02:22:09;;;;;;;8.67;7.90;;;;;;;20.02;100.00;96776.72;4972756;28;20298;-62
2022/07/26 02:24:37;;;;;;;8.43;7.73;;;;;;;19.99;100.00;96774.56;5003343;28;20208;-65
2022/07/26 02:30:49;;;;;;;8.30;7.70;;;;;;;19.79;100.00;96775.94;4999081;28;20589;-63
2022/07/26 02:33:18;;;;;;;8.77;7.97;;;;;;;19.75;100.00;96780.19;4980814;28;20794;-65
2022/07/26 02:35:49;;;;;;;8.37;7.57;;;;;;;19.79;100.00;96784.00;4944433;28;20677;-62
2022/07/26 02:38:18;;;;;;;9.60;8.90;;;;;;;19.70;100.00;96789.03;5003747;28;20349;-66
2022/07/26 02:41:01;;;;;;;9.33;8.60;;;;;;;19.80;100.00;96788.31;5005071;28;20213;-64
2022/07/26 02:43:31;;;;;;;9.43;8.53;;;;;;;19.69;100.00;96787.38;5002680;28;20389;-64
2022/07/26 02:45:59;;;;;;;8.90;8.03;;;;;;;19.63;100.00;96781.16;4949078;28;21115;-64
2022/07/26 02:48:29;;;;;;;9.73;8.87;;;;;;;19.70;100.00;96790.91;5000477;28;20747;-67
2022/07/26 02:50:58;;;;;;;8.60;7.90;;;;;;;19.63;100.00;96791.09;4953284;28;20243;-66
2022/07/26 02:53:30;;;;;;;9.47;8.53;;;;;;;19.64;100.00;96795.41;5004080;28;20231;-64
2022/07/26 02:56:01;;;;;;;8.53;7.93;;;;;;;19.54;100.00;96793.44;5001243;28;20205;-64
2022/07/26 02:58:31;;;;;;;9.80;8.93;;;;;;;19.66;100.00;96798.63;5003069;28;20213;-65
2022/07/26 03:01:01;;;;;;;10.97;8.70;;;;;;;19.70;100.00;96791.72;4951952;28;20302;-67
2022/07/26 03:03:31;;;;;;;9.73;8.93;;;;;;;19.70;100.00;96794.41;5004423;28;20228;-67
2022/07/26 03:06:03;;;;;;;9.10;8.47;;;;;;;19.75;100.00;96789.09;4951705;28;20405;-67
2022/07/26 03:08:33;;;;;;;8.77;8.07;;;;;;;19.67;100.00;96792.19;5007456;28;20228;-67
2022/07/26 03:11:01;;;;;;;9.40;8.50;;;;;;;19.68;100.00;96801.88;5001882;28;20220;-67
2022/07/26 03:13:30;;;;;;;8.33;7.73;;;;;;;19.72;100.00;96791.44;5007674;28;20291;-66
2022/07/26 03:16:03;;;;;;;9.17;8.37;;;;;;;19.79;100.00;96805.50;4974524;28;20296;-65
2022/07/26 03:18:32;;;;;;;9.80;8.87;;;;;;;19.67;100.00;96808.31;4981939;28;20204;-66
2022/07/26 03:21:00;;;;;;;8.63;7.83;;;;;;;19.55;100.00;96799.59;5005090;28;20208;-64
2022/07/26 03:23:32;;;;;;;9.47;8.67;;;;;;;19.61;100.00;96803.97;4982024;28;21055;-67
2022/07/26 03:26:04;;;;;;;9.67;8.67;;;;;;;19.60;100.00;96808.53;5003204;28;20205;-64
2022/07/26 03:28:33;;;;;;;8.90;8.13;;;;;;;19.70;100.00;96820.47;5004505;28;20320;-65
2022/07/26 03:31:02;;;;;;;8.80;8.10;;;;;;;19.68;100.00;96812.63;4971199;28;20233;-63
2022/07/26 03:33:35;;;;;;;9.70;8.80;;;;;;;19.63;100.00;96808.03;5002533;28;20346;-68
2022/07/26 03:36:05;;;;;;;9.93;9.03;;;;;;;19.46;100.00;96807.28;5001425;28;20688;-64
2022/07/26 03:38:43;;;;;;;10.13;9.23;;;;;;;19.37;100.00;96813.09;5005971;28;20577;-66
2022/07/26 03:41:20;;;;;;;9.37;8.53;;;;;;;19.48;100.00;96819.41;4984467;28;20302;-66
2022/07/26 03:43:52;;;;;;;9.80;8.80;;;;;;;19.47;100.00;96811.59;5001876;28;20713;-67
2022/07/26 03:46:20;;;;;;;10.27;9.37;;;;;;;19.45;100.00;96819.09;5001943;28;20287;-65
2022/07/26 03:48:48;;;;;;;10.60;9.00;;;;;;;19.42;100.00;96823.09;4950825;28;21003;-63
2022/07/26 03:51:17;;;;;;;9.47;8.50;;;;;;;19.44;100.00;96818.28;4997052;28;20863;-66
2022/07/26 03:53:45;;;;;;;9.07;8.33;;;;;;;19.42;100.00;96820.41;5005099;28;20629;-65
2022/07/26 03:56:30;;;;;;;9.63;8.70;;;;;;;19.48;100.00;96821.28;4984752;28;20740;-67
2022/07/26 03:59:01;;;;;;;10.87;9.87;;;;;;;19.37;100.00;96817.66;5002426;28;20211;-63
2022/07/26 04:01:30;;;;;;;9.93;9.10;;;;;;;19.48;100.00;96823.97;5003865;28;20697;-67
2022/07/26 04:04:01;;;;;;;9.80;8.93;;;;;;;19.58;100.00;96834.84;4950089;28;20232;-63
2022/07/26 04:06:31;;;;;;;9.00;8.30;;;;;;;19.56;100.00;96831.59;4998106;28;20771;-67
2022/07/26 04:09:09;;;;;;;10.03;9.17;;;;;;;19.62;100.00;96833.28;5001475;28;20208;-65
2022/07/26 04:11:41;;;;;;;9.83;8.93;;;;;;;19.59;100.00;96832.97;4985596;28;20240;-68
2022/07/26 04:14:13;;;;;;;9.77;8.87;;;;;;;19.62;100.00;96835.97;4997525;28;20471;-64
2022/07/26 04:16:46;;;;;;;9.13;8.40;;;;;;;19.72;100.00;96827.22;5004595;28;20720;-67
2022/07/26 04:19:15;;;;;;;9.63;8.77;;;;;;;19.78;100.00;96828.91;4945124;28;21016;-63
2022/07/26 04:21:45;;;;;;;9.13;8.50;;;;;;;19.88;100.00;96833.53;5003736;28;20595;-68
2022/07/26 04:24:13;;;;;;;9.67;8.77;;;;;;;19.88;100.00;96825.47;4998078;28;20310;-65
2022/07/26 04:26:51;;;;;;;10.47;9.67;;;;;;;19.89;100.00;96827.13;5002319;28;20200;-67
2022/07/26 04:29:19;;;;;;;10.40;9.67;;;;;;;19.93;100.00;96827.44;4983768;28;20497;-67
2022/07/26 04:31:48;;;;;;;10.03;9.13;;;;;;;19.94;100.00;96827.22;4966341;28;20239;-64
2022/07/26 04:34:19;;;;;;;9.80;8.83;;;;;;;19.95;100.00;96830.69;5002349;28;20526;-67
2022/07/26 04:36:48;;;;;;;9.57;8.83;;;;;;;19.98;100.00;96832.88;4923731;28;20239;-64
2022/07/26 04:39:16;;;;;;;9.63;8.73;;;;;;;19.97;100.00;96843.91;4965245;28;20217;-64
2022/07/26 04:41:50;;;;;;;9.33;8.73;;;;;;;19.93;100.00;96832.81;5003477;28;20196;-66
2022/07/26 04:44:24;;;;;;;10.50;9.80;;;;;;;19.98;100.00;96845.53;4980873;28;20236;-64
2022/07/26 04:46:52;;;;;;;9.47;8.80;;;;;;;20.03;100.00;96848.25;5001770;28;20196;-66
2022/07/26 04:49:24;;;;;;;10.80;9.90;;;;;;;20.07;100.00;96854.75;5003221;28;20211;-64
2022/07/26 04:51:53;;;;;;;10.93;9.83;;;;;;;20.08;100.00;96857.19;4949251;28;20285;-67
2022/07/26 04:54:26;;;;;;;9.80;9.00;;;;;;;20.05;100.00;96856.88;4995316;28;20721;-63
2022/07/26 04:56:56;;;;;;;11.00;10.00;;;;;;;20.11;100.00;96855.88;5001337;28;20208;-64
2022/07/26 04:59:24;;;;;;;11.80;10.80;;;;;;;19.89;100.00;96854.00;4982494;28;20262;-63
2022/07/26 05:01:53;;;;;;;11.33;10.40;;;;;;;19.98;100.00;96856.28;5001449;28;21999;-66
2022/07/26 05:04:23;;;;;;;11.20;10.27;;;;;;;20.05;100.00;96862.25;4998559;28;20674;-60
2022/07/26 05:06:52;;;;;;;12.30;11.07;;;;;;;20.03;100.00;96854.44;4951012;28;20221;-65
2022/07/26 05:09:25;;;;;;;12.50;11.40;;;;;;;19.94;100.00;96855.97;4998172;28;20208;-64
2022/07/26 05:11:53;;;;;;;11.13;10.20;;;;;;;20.00;100.00;96859.53;5005658;28;20229;-60
2022/07/26 05:14:29;;;;;;;11.43;10.40;;;;;;;19.99;100.00;96856.00;4991086;28;20760;-63
2022/07/26 05:17:00;;;;;;;10.63;9.73;;;;;;;19.96;100.00;96859.22;5006636;28;20302;-66
2022/07/26 05:19:37;;;;;;;10.87;9.90;;;;;;;20.00;100.00;96862.22;4998642;28;20259;-65
2022/07/26 05:22:19;;;;;;;10.80;9.87;;;;;;;19.99;100.00;96871.34;4944820;28;20212;-64
2022/07/26 05:24:54;;;;;;;10.93;10.03;;;;;;;20.05;100.00;96868.44;4922093;28;20458;-65
2022/07/26 05:27:32;;;;;;;11.73;10.03;;;;;;;20.02;100.00;96865.47;4976582;28;20228;-64
2022/07/26 05:30:06;;;;;;;11.77;10.67;;;;;;;20.10;100.00;96859.63;4984849;28;21383;-65
2022/07/26 05:32:43;;;;;;;11.20;10.30;;;;;;;20.18;100.00;96858.38;4976172;28;20821;-63
2022/07/26 05:35:13;;;;;;;11.00;9.93;;;;;;;20.29;100.00;96853.91;5006136;28;20215;-65
2022/07/26 05:37:45;;;;;;;10.27;9.47;;;;;;;20.32;100.00;96854.19;5000105;28;21898;-64
2022/07/26 05:40:18;;;;;;;12.20;11.10;;;;;;;20.36;100.00;96854.50;4946021;28;20617;-65
2022/07/26 05:42:46;;;;;;;10.63;9.80;;;;;;;20.45;100.00;96849.44;5001712;28;20329;-64
2022/07/26 05:45:18;;;;;;;10.57;9.73;;;;;;;20.63;100.00;96856.31;4986633;28;20219;-66
2022/07/26 05:47:51;;;;;;;11.33;10.23;;;;;;;20.76;100.00;96850.53;4977398;28;20448;-66
2022/07/26 05:50:22;;;;;;;9.07;8.20;;;;;;;20.80;100.00;96856.22;5008710;28;20212;-65
2022/07/26 05:52:51;;;;;;;9.37;8.03;;;;;;;20.75;100.00;96856.97;5004242;28;20239;-66
2022/07/26 05:55:26;;;;;;;8.37;7.53;;;;;;;20.87;100.00;96859.53;4950891;28;20216;-66
2022/07/26 05:57:59;;;;;;;9.47;7.70;;;;;;;20.87;100.00;96858.69;5005854;28;20311;-66
2022/07/26 06:00:30;;;;;;;6.90;6.13;;;;;;;20.87;100.00;96858.69;4985658;28;20215;-63
2022/07/26 06:03:20;;;;;;;5.93;5.43;;;;;;;20.83;100.00;96861.06;4978200;28;21844;-65
2022/07/26 06:05:51;;;;;;;5.23;4.70;;;;;;;20.72;100.00;96860.19;5003662;28;20196;-66
2022/07/26 06:08:20;;;;;;;11.03;5.30;;;;;;;20.88;100.00;96857.63;5008362;28;20201;-64
2022/07/26 06:10:54;;;;;;;4.53;4.17;;;;;;;20.94;100.00;96853.88;4963442;28;20534;-66
2022/07/26 06:13:23;;;;;;;5.30;4.80;;;;;;;20.98;100.00;96860.38;5007403;28;20231;-65
2022/07/26 06:16:00;;;;;;;7.70;4.70;;;;;;;21.09;100.00;96851.31;4985414;28;20972;-65
2022/07/26 06:18:38;;;;;;;4.57;4.27;;;;;;;21.22;100.00;96858.13;4997618;28;20224;-64
2022/07/26 06:21:10;;;;;;;4.93;4.53;;;;;;;21.40;100.00;96864.94;5006228;28;20203;-64
2022/07/26 06:23:42;;;;;;;4.37;3.97;;;;;;;21.46;100.00;96863.06;4964786;28;20226;-63
2022/07/26 06:26:14;;;;;;;3.83;3.53;;;;;;;21.27;100.00;96867.31;5001539;28;20208;-64
2022/07/26 06:28:45;;;;;;;4.17;3.73;;;;;;;21.29;100.00;96868.66;4999535;28;20589;-63
2022/07/26 06:31:15;;;;;;;4.57;4.00;;;;;;;21.47;100.00;96869.28;4988248;28;20291;-66
2022/07/26 06:33:45;;;;;;;4.30;4.00;;;;;;;21.61;100.00;96856.94;5006636;28;20422;-66
2022/07/26 06:36:14;;;;;;;4.97;4.57;;;;;;;21.62;100.00;96855.88;4979026;28;20221;-66
2022/07/26 06:38:42;;;;;;;5.90;3.60;;;;;;;21.69;100.00;96855.66;5000974;28;20223;-63
2022/07/26 06:41:12;;;;;;;4.87;3.37;;;;;;;21.76;100.00;96858.09;4954408;28;20217;-65
2022/07/26 06:43:43;;;;;;;7.03;3.87;;;;;;;22.04;100.00;96851.47;4998908;28;20649;-65
2022/07/26 06:46:16;;;;;;;5.07;3.70;;;;;;;22.39;100.00;96859.88;5002655;28;20299;-65
2022/07/26 06:48:45;;;;;;;5.10;4.10;;;;;;;22.40;100.00;96861.47;4987246;28;20204;-63
2022/07/26 06:51:20;;;;;;;3.30;3.00;;;;;;;22.56;100.00;96848.84;4982107;28;20204;-65
2022/07/26 06:53:54;;;;;;;4.37;3.63;;;;;;;22.71;100.00;96858.81;5001261;28;20910;-64
2022/07/26 06:56:27;;;;;;;2.90;2.70;;;;;;;22.57;88.68;96853.16;4956918;28;20222;-64
2022/07/26 06:58:56;;;;;;;3.40;3.20;;;;;;;22.38;93.31;96859.06;5001847;28;20334;-65
2022/07/26 07:01:26;;;;;;;4.97;3.57;;;;;;;22.33;95.25;96871.72;5005901;28;20207;-63
2022/07/26 07:04:14;;;;;;;3.20;3.00;;;;;;;22.55;98.23;96866.94;4987417;28;20235;-66
2022/07/26 07:06:45;;;;;;;4.03;3.03;;;;;;;22.50;91.79;96863.41;4977900;28;20200;-64
2022/07/26 07:09:19;;;;;;;2.60;2.50;;;;;;;22.70;96.32;96868.00;5004808;28;20696;-67
2022/07/26 07:11:48;;;;;;;4.03;3.00;;;;;;;22.64;93.90;96867.19;4952466;28;20841;-66
2022/07/26 07:14:23;;;;;;;4.20;3.10;;;;;;;22.67;90.88;96874.75;5005008;28;20232;-66
2022/07/26 07:16:56;;;;;;;4.10;2.80;;;;;;;22.80;92.90;96873.41;5002208;28;20259;-66
2022/07/26 07:19:27;;;;;;;5.53;3.30;;;;;;;23.06;89.96;96876.09;4988552;28;20585;-62
2022/07/26 07:22:10;;;;;;;4.27;3.87;;;;;;;23.36;86.87;96879.03;5001091;28;20501;-64
2022/07/26 07:25:01;;;;;;;2.97;2.70;;;;;;;23.45;86.90;96874.66;4985748;28;20674;-66
2022/07/26 07:27:35;;;;;;;5.47;2.70;;;;;;;23.61;84.31;96874.63;4956283;28;20897;-64
2022/07/26 07:30:13;;;;;;;2.97;2.77;;;;;;;23.45;84.02;96871.97;5001324;28;20200;-64
2022/07/26 07:32:49;;;;;;;2.63;2.53;;;;;;;23.36;80.33;96874.44;4941579;28;20793;-64
2022/07/26 07:35:32;;;;;;;5.57;2.97;;;;;;;23.34;82.35;96878.47;5000523;28;20457;-66
2022/07/26 07:38:08;;;;;;;3.17;2.93;;;;;;;23.25;86.50;96876.34;4999903;28;20463;-65
2022/07/26 07:40:41;;;;;;;4.70;2.90;;;;;;;23.29;89.93;96873.09;5004598;28;21139;-66
2022/07/26 07:43:21;;;;;;;2.87;2.67;;;;;;;23.13;90.13;96870.41;4978650;28;21048;-66
2022/07/26 07:46:00;;;;;;;4.03;3.27;;;;;;;22.79;90.76;96871.78;4958873;28;20209;-63
2022/07/26 07:48:39;;;;;;;3.40;3.20;;;;;;;22.68;96.19;96872.88;4979405;28;20302;-64
2022/07/26 07:51:22;;;;;;;4.23;3.83;;;;;;;22.70;88.42;96870.72;5001771;28;20500;-65
2022/07/26 07:54:01;;;;;;;4.57;4.20;;;;;;;22.66;93.54;96864.22;5003183;28;20255;-63
2022/07/26 07:56:40;;;;;;;3.37;2.90;;;;;;;22.91;94.83;96868.81;5004226;28;20200;-66
2022/07/26 07:59:18;;;;;;;3.80;3.50;;;;;;;22.80;89.22;96862.59;5004957;28;20203;-64
2022/07/26 08:01:58;;;;;;;4.93;3.20;;;;;;;22.92;94.73;96858.78;4963659;28;20705;-63
2022/07/26 08:04:31;;;;;;;5.27;2.87;;;;;;;23.15;84.31;96862.84;5002828;28;20513;-66
2022/07/26 08:07:09;;;;;;;3.00;2.80;;;;;;;23.31;81.84;96852.84;5001525;28;20434;-67
2022/07/26 08:09:43;;;;;;;3.23;2.93;;;;;;;23.42;74.22;96854.41;5003338;28;20206;-64
2022/07/26 08:12:20;;;;;;;3.03;2.70;;;;;;;23.51;74.74;96854.66;5002435;28;20425;-65
2022/07/26 08:14:58;;;;;;;2.70;2.50;;;;;;;23.55;75.53;96865.72;5003863;28;20235;-64
2022/07/26 08:17:42;;;;;;;4.43;2.73;;;;;;;23.92;74.16;96861.75;5006459;28;20204;-67
2022/07/26 08:20:36;;;;;;;3.23;2.33;;;;;;;23.82;70.05;96859.13;5005845;28;20219;-67
2022/07/26 08:23:16;;;;;;;2.93;2.60;;;;;;;23.97;68.62;96858.22;5001709;28;20240;-66
2022/07/26 08:25:50;;;;;;;3.53;2.60;;;;;;;23.96;66.87;96853.91;5002202;28;20207;-63
2022/07/26 08:28:28;;;;;;;3.43;2.80;;;;;;;23.83;62.46;96852.63;5000791;28;20201;-66
2022/07/26 08:31:23;;;;;;;3.03;2.83;;;;;;;24.04;64.67;96856.06;5003635;28;20351;-63
2022/07/26 08:34:00;;;;;;;2.53;2.43;;;;;;;24.47;63.47;96865.53;4958150;28;20236;-64
2022/07/26 08:36:40;;;;;;;3.23;3.03;;;;;;;24.81;57.41;96857.44;4999957;28;20230;-66
2022/07/26 08:39:39;;;;;;;2.83;2.63;;;;;;;25.09;55.31;96846.84;5004104;28;20211;-67
2022/07/26 08:42:21;;;;;;;2.97;2.60;;;;;;;25.01;57.06;96850.19;5002915;28;20453;-62
2022/07/26 08:45:01;;;;;;;4.37;2.60;;;;;;;24.82;49.92;96847.38;4998572;28;20913;-65
2022/07/26 08:47:45;;;;;;;4.87;2.77;;;;;;;24.51;49.17;96851.16;5002205;28;20204;-63
2022/07/26 08:50:50;;;;;;;2.20;2.10;;;;;;;24.35;53.22;96855.03;4950247;28;20925;-64
2022/07/26 08:53:33;;;;;;;2.97;2.33;;;;;;;23.87;56.15;96856.38;5001966;28;20644;-66
2022/07/26 08:56:12;;;;;;;2.63;2.43;;;;;;;23.58;54.49;96856.25;5000038;28;20422;-66
2022/07/26 08:58:50;;;;;;;2.40;2.13;;;;;;;23.25;51.51;96859.31;5000868;28;20246;-63
2022/07/26 09:01:29;;;;;;;2.40;2.30;;;;;;;23.63;54.18;96861.63;4999482;28;20211;-65
2022/07/26 09:04:22;;;;;;;2.80;2.60;;;;;;;24.52;53.27;96863.59;4997813;28;20216;-67
2022/07/26 09:07:18;;;;;;;2.50;2.33;;;;;;;24.76;49.49;96865.59;4945975;28;20213;-64
2022/07/26 09:10:08;;;;;;;2.83;2.60;;;;;;;24.57;51.74;96873.56;5003039;28;20739;-63
2022/07/26 09:12:44;;;;;;;3.47;2.60;;;;;;;24.37;51.60;96871.81;5003497;28;20219;-64
2022/07/26 09:15:34;;;;;;;2.27;2.17;;;;;;;24.53;52.75;96878.75;5007417;28;20231;-66
2022/07/26 09:18:31;;;;;;;8.47;2.67;;;;;;;24.67;48.93;96873.50;5004957;28;20224;-66
2022/07/26 09:21:04;;;;;;;2.67;2.23;;;;;;;24.91;46.53;96877.41;4950315;28;21114;-65
2022/07/26 09:23:45;;;;;;;2.60;2.20;;;;;;;24.75;49.50;96882.94;5007213;28;20294;-66
2022/07/26 09:26:28;;;;;;;2.23;2.03;;;;;;;25.01;48.59;96882.72;5004064;28;20314;-65
2022/07/26 09:29:04;;;;;;;3.43;2.20;;;;;;;24.96;47.78;96883.56;5006126;28;20511;-65
2022/07/26 09:31:38;;;;;;;2.80;2.60;;;;;;;24.60;47.94;96889.25;5007089;28;20291;-66
2022/07/26 09:34:18;;;;;;;3.13;2.83;;;;;;;24.18;52.06;96883.31;5002392;28;20244;-65
2022/07/26 09:36:52;;;;;;;2.30;2.10;;;;;;;23.87;50.03;96882.66;4950480;28;20212;-63
2022/07/26 09:39:34;;;;;;;3.23;2.40;;;;;;;24.10;48.26;96886.59;4933254;28;20776;-63
2022/07/26 09:42:27;;;;;;;2.97;2.70;;;;;;;24.41;46.09;96876.38;5002190;28;20218;-65
2022/07/26 09:45:00;;;;;;;2.23;2.07;;;;;;;24.39;46.50;96875.03;4983622;28;20196;-66
2022/07/26 09:47:46;;;;;;;5.73;2.30;;;;;;;24.37;46.71;96869.09;4986951;28;20209;-63
2022/07/26 09:50:26;;;;;;;2.03;1.93;;;;;;;24.00;47.94;96871.19;5005718;28;20201;-63
2022/07/26 09:53:10;;;;;;;2.47;2.30;;;;;;;24.31;48.57;96867.53;4980979;28;20846;-66
2022/07/26 09:55:59;;;;;;;2.03;1.93;;;;;;;24.68;45.14;96858.88;4962656;28;20693;-66
2022/07/26 09:58:37;;;;;;;2.03;1.93;;;;;;;24.91;45.42;96867.34;5002533;28;20689;-64
2022/07/26 10:01:11;;;;;;;3.37;2.70;;;;;;;25.19;44.21;96864.09;4984966;28;20674;-66
2022/07/26 10:03:44;;;;;;;2.30;2.20;;;;;;;25.06;42.93;96868.31;4982804;28;20453;-64
2022/07/26 10:06:22;;;;;;;2.20;1.93;;;;;;;25.14;43.73;96851.44;5007732;28;20575;-64
2022/07/26 10:09:04;;;;;;;2.30;1.80;;;;;;;25.27;43.28;96852.66;4951222;28;20219;-64
2022/07/26 10:11:52;;;;;;;2.07;1.80;;;;;;;25.78;42.41;96853.16;5000692;28;20212;-67
2022/07/26 10:14:40;;;;;;;3.03;2.00;;;;;;;25.85;40.74;96859.03;5004915;28;20232;-64
2022/07/26 10:17:39;;;;;;;2.43;2.23;;;;;;;26.19;42.55;96854.56;4987620;28;20234;-66
2022/07/26 10:20:35;;;;;;;4.63;1.77;;;;;;;26.46;39.56;96858.47;4910197;28;20382;-63
2022/07/26 10:23:36;;;;;;;2.13;2.03;;;;;;;26.14;40.60;96849.97;4908039;28;20314;-65
2022/07/26 10:26:08;;;;;;;2.00;1.90;;;;;;;26.64;42.81;96846.78;4882493;28;20318;-65
2022/07/26 10:28:38;;;;;;;2.30;2.10;;;;;;;26.68;40.78;96844.25;4931232;28;20273;-65
2022/07/26 10:31:34;;;;;;;3.60;2.40;;;;;;;26.26;40.18;96834.06;4912231;28;20222;-64
2022/07/26 10:34:04;;;;;;;2.43;2.03;;;;;;;26.01;40.83;96846.06;4918982;28;20650;-65
2022/07/26 10:36:37;;;;;;;2.13;1.60;;;;;;;25.90;41.26;96839.97;4928811;28;20411;-66
2022/07/26 10:39:18;;;;;;;3.87;2.10;;;;;;;26.23;40.72;96834.66;4904453;28;20317;-65
2022/07/26 10:41:59;;;;;;;1.83;1.73;;;;;;;27.13;40.61;96824.75;4891981;28;20324;-66
2022/07/26 10:44:34;;;;;;;2.13;1.87;;;;;;;27.04;39.60;96832.00;4930204;28;20232;-63
2022/07/26 10:47:23;;;;;;;2.10;1.80;;;;;;;26.49;38.46;96836.16;4914929;28;20215;-65
2022/07/26 10:49:56;;;;;;;2.70;1.87;;;;;;;26.40;39.20;96841.47;4917820;28;20895;-65
2022/07/26 10:52:29;;;;;;;2.00;1.90;;;;;;;26.35;41.32;96841.56;4931258;28;20670;-63
2022/07/26 10:55:11;;;;;;;1.70;1.70;;;;;;;25.98;40.83;96843.94;4918187;28;20223;-66
2022/07/26 10:57:48;;;;;;;2.13;2.00;;;;;;;26.06;41.10;96845.19;4950653;28;20206;-64
2022/07/26 11:00:27;;;;;;;5.73;1.87;;;;;;;25.90;40.85;96839.97;5002597;28;20295;-63
2022/07/26 11:03:00;;;;;;;1.97;1.83;;;;;;;25.93;40.38;96847.53;4987151;28;20228;-66
2022/07/26 11:05:30;;;;;;;2.40;2.20;;;;;;;25.79;41.52;96841.22;4985790;28;20280;-64
2022/07/26 11:08:10;;;;;;;2.37;2.10;;;;;;;25.84;41.09;96843.84;5003959;28;20222;-65
2022/07/26 11:10:43;;;;;;;2.00;1.90;;;;;;;25.88;41.40;96844.88;4977784;28;20330;-67
2022/07/26 11:13:14;;;;;;;2.23;2.00;;;;;;;25.83;41.84;96842.25;4948505;28;20236;-64
2022/07/26 11:15:53;;;;;;;2.60;1.80;;;;;;;26.28;41.38;96842.72;5004441;28;20945;-67
2022/07/26 11:18:34;;;;;;;2.27;2.10;;;;;;;26.30;41.81;96839.72;4984153;28;20672;-65
2022/07/26 11:21:19;;;;;;;3.20;2.20;;;;;;;26.28;41.63;96836.50;4986011;28;20689;-66
2022/07/26 11:23:55;;;;;;;1.87;1.77;;;;;;;26.37;41.68;96840.13;5003175;28;20436;-67
2022/07/26 11:26:47;;;;;;;1.90;1.80;;;;;;;26.85;41.97;96828.25;4975476;28;20219;-65
2022/07/26 11:29:26;;;;;;;1.83;1.73;;;;;;;27.13;38.79;96828.31;4951376;28;20212;-63
2022/07/26 11:32:07;;;;;;;3.17;2.00;;;;;;;26.86;40.18;96832.59;5005381;28;20466;-63
2022/07/26 11:34:58;;;;;;;2.23;2.03;;;;;;;26.68;40.41;96834.22;4982275;28;20232;-65
2022/07/26 11:37:33;;;;;;;2.40;1.83;;;;;;;26.47;40.17;96828.31;4986535;28;20208;-63
2022/07/26 11:40:09;;;;;;;1.87;1.77;;;;;;;26.01;42.08;96824.34;5003171;28;20216;-65
2022/07/26 11:42:42;;;;;;;2.40;2.20;;;;;;;25.94;42.18;96822.00;4973118;28;20227;-63
2022/07/26 11:45:14;;;;;;;2.60;2.40;;;;;;;25.99;41.90;96823.84;4950601;28;20519;-64
2022/07/26 11:47:47;;;;;;;2.57;2.30;;;;;;;25.93;43.46;96825.81;4916050;28;20208;-63
2022/07/26 11:50:21;;;;;;;2.53;2.23;;;;;;;25.90;42.32;96820.19;5006816;28;20211;-66
2022/07/26 11:52:52;;;;;;;3.27;1.97;;;;;;;25.79;42.53;96820.31;4975361;28;20228;-62
2022/07/26 11:55:27;;;;;;;2.17;2.07;;;;;;;25.69;42.91;96815.84;5002960;28;20268;-65
2022/07/26 11:57:57;;;;;;;3.60;2.50;;;;;;;25.70;43.05;96809.31;5002848;28;20652;-65
2022/07/26 12:00:32;;;;;;;2.47;2.27;;;;;;;25.82;42.44;96819.75;5005471;28;20204;-65
2022/07/26 12:03:08;;;;;;;1.80;1.70;;;;;;;25.69;43.18;96817.72;4951721;28;20878;-64
2022/07/26 12:05:43;;;;;;;2.30;2.03;;;;;;;25.49;43.51;96816.09;5000646;28;20203;-63
2022/07/26 12:08:14;;;;;;;1.87;1.87;;;;;;;25.40;44.11;96815.91;5005696;28;20892;-65